Terminal Aerodrome Forecast
Issued by NWS

Home | Current Version | Previous Version | Text Only | Print | Product List | Glossary On
Versions: 1 2 3 4 5 6 7 8 9 10 11 12 13 14 15 16 17 18 19 20 21 22 23 24 25
000
FTUS42 KILM 211800 AAA
TAFCRE
TAF AMD
KCRE 211845Z 2119/2218 21014KT P6SM VCTS SCT040CB BKN080 OVC110
     FM212300 23003KT P6SM SCT120
     FM220400 VRB04KT P6SM VCSH SCT035 BKN100
     FM221300 28007KT P6SM FEW020=

USA.gov is the U.S. government's official web portal to all federal, state and local government web resources and services.